Time;durP1;ratioP1;P1;durP2;ratioP2;P2;SDS_P1;SDS_P2;PMS_P1;PMS_P2;Temp;Humidity;BMP_temperature;BMP_pressure;BME280_temperature;BME280_humidity;BME280_pressure;Samples;Min_cycle;Max_cycle;Signal;HPM_P1;HPM_P2
2022/11/21 00:01:23;;;;;;;1.60;1.48;;;3.10;99.90;;;;;;4701032;30;20516;-83
2022/11/21 00:03:54;;;;;;;1.15;1.10;;;3.10;99.90;;;;;;4700671;30;20493;-82
2022/11/21 00:06:22;;;;;;;1.00;1.00;;;3.10;99.90;;;;;;4671467;30;20076;-83
2022/11/21 00:08:50;;;;;;;0.93;0.93;;;3.20;99.90;;;;;;4700647;30;20049;-83
2022/11/21 00:11:19;;;;;;;1.48;1.38;;;3.10;99.90;;;;;;4700015;30;20057;-84
2022/11/21 00:13:51;;;;;;;1.00;1.00;;;3.20;99.90;;;;;;4657584;30;20057;-84
2022/11/21 00:16:23;;;;;;;0.90;0.90;;;3.10;99.90;;;;;;4685816;30;20053;-83
2022/11/21 00:18:50;;;;;;;0.90;0.90;;;3.20;99.90;;;;;;4700581;30;20056;-83
2022/11/21 00:21:19;;;;;;;1.35;1.15;;;3.20;99.90;;;;;;4700077;30;20058;-84
2022/11/21 00:23:47;;;;;;;2.00;0.93;;;3.20;99.90;;;;;;4700534;30;20053;-84
2022/11/21 00:26:15;;;;;;;0.88;0.88;;;3.20;99.90;;;;;;4670777;30;20073;-84
2022/11/21 00:28:43;;;;;;;1.02;0.93;;;3.30;99.90;;;;;;4700314;30;20065;-84
2022/11/21 00:31:19;;;;;;;0.80;0.80;;;3.30;99.90;;;;;;4700067;30;20058;-82
2022/11/21 00:33:47;;;;;;;1.23;1.23;;;3.40;99.90;;;;;;4700404;30;20062;-83
2022/11/21 00:36:17;;;;;;;1.05;1.05;;;3.40;99.90;;;;;;4700075;30;20057;-82
2022/11/21 00:38:44;;;;;;;0.93;0.93;;;3.30;99.90;;;;;;4706960;30;20072;-75
2022/11/21 00:41:12;;;;;;;0.65;0.65;;;3.40;99.90;;;;;;4704881;30;20057;-83
2022/11/21 00:43:39;;;;;;;1.85;1.75;;;3.40;99.90;;;;;;4684627;30;20053;-83
2022/11/21 00:46:06;;;;;;;0.90;0.90;;;3.40;99.90;;;;;;4674016;30;20049;-82
2022/11/21 00:48:33;;;;;;;1.10;1.10;;;3.40;99.90;;;;;;4671321;30;20576;-83
2022/11/21 00:51:01;;;;;;;0.80;0.80;;;3.40;99.90;;;;;;4690920;30;20045;-83
2022/11/21 00:53:28;;;;;;;0.82;0.82;;;3.40;99.90;;;;;;4683276;30;20050;-85
2022/11/21 00:55:56;;;;;;;0.93;0.93;;;3.50;99.90;;;;;;4667563;30;20043;-85
2022/11/21 00:58:24;;;;;;;0.95;0.95;;;3.50;99.90;;;;;;4668133;30;20058;-83
2022/11/21 01:00:52;;;;;;;1.17;1.17;;;3.40;99.90;;;;;;4653055;30;20073;-84
2022/11/21 01:03:19;;;;;;;1.10;0.80;;;3.40;99.90;;;;;;4653310;30;20054;-83
2022/11/21 01:05:47;;;;;;;1.00;1.00;;;3.50;99.90;;;;;;4681276;30;20417;-84
2022/11/21 01:08:14;;;;;;;0.90;0.90;;;3.50;99.90;;;;;;4665859;30;20068;-83
2022/11/21 01:10:41;;;;;;;1.10;1.10;;;3.50;99.90;;;;;;4675665;30;20052;-84
2022/11/21 01:13:09;;;;;;;0.88;0.80;;;3.50;99.90;;;;;;4699412;30;20398;-84
2022/11/21 01:15:36;;;;;;;2.38;1.00;;;3.50;99.90;;;;;;4699917;30;20045;-84
2022/11/21 01:18:03;;;;;;;3.83;1.17;;;3.40;99.90;;;;;;4684625;30;20053;-83
2022/11/21 01:20:31;;;;;;;0.82;0.82;;;3.50;99.90;;;;;;4699735;30;20411;-84
2022/11/21 01:22:58;;;;;;;1.10;1.00;;;3.50;99.90;;;;;;4697870;30;20068;-84
2022/11/21 01:25:25;;;;;;;0.80;0.80;;;3.50;99.90;;;;;;4668339;30;20068;-83
2022/11/21 01:27:53;;;;;;;0.90;0.90;;;3.50;99.90;;;;;;4682157;30;20049;-84
2022/11/21 01:30:21;;;;;;;0.70;0.70;;;3.50;99.90;;;;;;4682755;30;20056;-84
2022/11/21 01:32:49;;;;;;;0.90;0.90;;;3.50;99.90;;;;;;4667924;30;20057;-84
2022/11/21 01:35:17;;;;;;;0.88;0.88;;;3.50;99.90;;;;;;4667416;30;20053;-84
2022/11/21 01:37:48;;;;;;;0.88;0.88;;;3.50;99.90;;;;;;4683087;30;20068;-83
2022/11/21 01:40:15;;;;;;;1.33;1.10;;;3.50;99.90;;;;;;4682175;30;20064;-84
2022/11/21 01:43:10;;;;;;;0.90;0.90;;;3.50;99.90;;;;;;4682818;30;20053;-84
2022/11/21 01:45:51;;;;;;;0.90;0.90;;;3.50;99.90;;;;;;4654811;30;20050;-84
2022/11/21 01:48:25;;;;;;;1.38;1.27;;;3.50;99.90;;;;;;4683879;30;20053;-84
2022/11/21 01:50:55;;;;;;;1.10;1.00;;;3.50;99.90;;;;;;4699271;30;20497;-84
2022/11/21 01:53:23;;;;;;;1.20;1.10;;;3.50;99.90;;;;;;4684233;30;20064;-84
2022/11/21 01:55:51;;;;;;;2.28;1.95;;;3.40;99.90;;;;;;4683979;30;20046;-84
2022/11/21 01:58:20;;;;;;;0.95;0.95;;;3.40;99.90;;;;;;4684353;30;20512;-84
2022/11/21 02:00:48;;;;;;;1.38;1.30;;;3.40;99.90;;;;;;4669679;30;20042;-84
2022/11/21 02:03:30;;;;;;;1.05;1.05;;;3.40;99.90;;;;;;4669589;30;20046;-84
2022/11/21 02:05:58;;;;;;;1.40;1.40;;;3.40;99.90;;;;;;4670214;30;20592;-84
2022/11/21 02:08:26;;;;;;;1.05;1.05;;;3.40;99.90;;;;;;4655264;30;20057;-84
2022/11/21 02:11:12;;;;;;;1.33;1.33;;;3.40;99.90;;;;;;4683805;30;20485;-84
2022/11/21 02:13:39;;;;;;;1.20;1.20;;;3.40;99.90;;;;;;4699814;30;20054;-84
2022/11/21 02:16:07;;;;;;;1.38;1.25;;;3.40;99.90;;;;;;4684008;30;20042;-83
2022/11/21 02:18:35;;;;;;;1.75;1.10;;;3.50;99.90;;;;;;4684145;30;20065;-84
2022/11/21 02:21:28;;;;;;;1.17;1.17;;;3.50;99.90;;;;;;4683552;30;20053;-84
2022/11/21 02:24:01;;;;;;;1.00;1.00;;;3.50;99.90;;;;;;4683779;30;20844;-85
2022/11/21 02:26:29;;;;;;;1.65;1.55;;;3.50;99.90;;;;;;4683817;30;20065;-84
2022/11/21 02:28:57;;;;;;;0.95;0.95;;;3.50;99.90;;;;;;4683878;30;20501;-84
2022/11/21 02:31:24;;;;;;;0.90;0.90;;;3.50;99.90;;;;;;4680491;30;20050;-84
2022/11/21 02:34:02;;;;;;;0.95;0.95;;;3.50;99.90;;;;;;4666755;30;20058;-84
2022/11/21 02:36:41;;;;;;;1.10;1.10;;;3.50;99.90;;;;;;4669193;30;20058;-84
2022/11/21 02:39:14;;;;;;;1.00;1.00;;;3.50;99.90;;;;;;4669841;30;20042;-84
2022/11/21 02:42:01;;;;;;;1.30;1.30;;;3.50;99.90;;;;;;4670052;30;20069;-85
2022/11/21 02:44:34;;;;;;;0.82;0.80;;;3.50;99.90;;;;;;4669583;30;20497;-84
2022/11/21 02:47:01;;;;;;;1.35;1.17;;;3.50;99.90;;;;;;4669591;30;20053;-84
2022/11/21 02:49:58;;;;;;;1.00;1.00;;;3.60;99.90;;;;;;4655449;30;20543;-85
2022/11/21 02:52:26;;;;;;;1.17;1.08;;;3.60;99.90;;;;;;4655257;30;20544;-84
2022/11/21 02:54:53;;;;;;;1.10;1.10;;;3.60;99.90;;;;;;4654753;30;20054;-82
2022/11/21 02:58:18;;;;;;;1.00;1.00;;;3.60;99.90;;;;;;4678005;30;20050;-90
2022/11/21 03:05:09;;;;;;;2.20;1.20;;;3.60;99.90;;;;;;4670253;30;20066;-86
2022/11/21 03:07:37;;;;;;;0.93;0.93;;;3.60;99.90;;;;;;4654835;30;20062;-84
2022/11/21 03:10:05;;;;;;;1.02;1.02;;;3.50;99.90;;;;;;4660620;30;20056;-84
2022/11/21 03:12:35;;;;;;;0.93;0.93;;;3.50;99.90;;;;;;4671779;30;20058;-84
2022/11/21 03:15:06;;;;;;;2.20;1.13;;;3.50;99.90;;;;;;4701272;30;20052;-86
2022/11/21 03:17:35;;;;;;;1.13;1.13;;;3.40;99.90;;;;;;4685375;30;20053;-83
2022/11/21 03:20:04;;;;;;;1.05;1.05;;;3.40;99.90;;;;;;4685904;30;20046;-84
2022/11/21 03:22:32;;;;;;;0.85;0.85;;;3.30;99.90;;;;;;4672587;30;20058;-84
2022/11/21 03:25:00;;;;;;;1.00;1.00;;;3.30;99.90;;;;;;4672006;30;20413;-84
2022/11/21 03:27:27;;;;;;;3.05;1.20;;;3.30;99.90;;;;;;4671651;30;20057;-83
2022/11/21 03:29:54;;;;;;;0.93;0.93;;;3.30;99.90;;;;;;4672278;30;20053;-83
2022/11/21 03:32:22;;;;;;;1.23;1.23;;;3.40;99.90;;;;;;4685704;30;20060;-84
2022/11/21 03:38:59;;;;;;;1.00;1.00;;;3.60;99.90;;;;;;4667643;30;20062;-83
2022/11/21 03:41:30;;;;;;;0.93;0.93;;;3.50;99.90;;;;;;4686244;30;20512;-84
2022/11/21 03:44:06;;;;;;;1.33;1.27;;;3.50;99.90;;;;;;4700387;30;20049;-86
2022/11/21 03:46:36;;;;;;;0.80;0.80;;;3.50;99.90;;;;;;4718047;30;20066;-83
2022/11/21 03:49:04;;;;;;;0.90;0.90;;;3.50;99.90;;;;;;4716749;30;20501;-85
2022/11/21 03:51:31;;;;;;;1.38;0.90;;;3.40;99.90;;;;;;4689400;30;20045;-83
2022/11/21 03:53:59;;;;;;;1.10;1.10;;;3.30;99.90;;;;;;4684066;30;20575;-86
2022/11/21 03:56:27;;;;;;;1.98;1.88;;;3.20;99.90;;;;;;4669529;30;20378;-84
2022/11/21 03:58:55;;;;;;;1.08;1.08;;;3.20;99.90;;;;;;4668364;30;20050;-86
2022/11/21 04:01:23;;;;;;;1.20;1.08;;;3.30;99.90;;;;;;4654506;30;20058;-83
2022/11/21 04:03:54;;;;;;;2.25;2.03;;;3.30;99.90;;;;;;4653680;30;20042;-84
2022/11/21 04:06:22;;;;;;;0.93;0.90;;;3.20;99.90;;;;;;4654391;30;20064;-84
2022/11/21 04:08:49;;;;;;;0.90;0.90;;;3.20;99.90;;;;;;4668088;30;20058;-84
2022/11/21 04:11:18;;;;;;;1.50;1.40;;;3.20;99.90;;;;;;4683542;30;20046;-86
2022/11/21 04:13:45;;;;;;;1.58;1.15;;;3.30;99.90;;;;;;4654029;30;20054;-84
2022/11/21 04:16:12;;;;;;;1.92;1.00;;;3.20;99.90;;;;;;4667387;30;20413;-83
2022/11/21 04:18:40;;;;;;;2.65;2.45;;;3.20;99.90;;;;;;4653577;30;20054;-84
2022/11/21 04:21:07;;;;;;;2.20;1.15;;;3.20;99.90;;;;;;4654100;30;20058;-84
2022/11/21 04:23:35;;;;;;;1.85;1.30;;;3.20;99.90;;;;;;4653535;30;20050;-84
2022/11/21 04:26:03;;;;;;;3.53;1.20;;;3.10;99.90;;;;;;4668456;30;20061;-84
2022/11/21 04:28:30;;;;;;;0.98;0.98;;;3.20;99.90;;;;;;4682806;30;20054;-86
2022/11/21 04:31:02;;;;;;;1.45;1.35;;;3.20;99.90;;;;;;4669378;30;20061;-86
2022/11/21 04:33:38;;;;;;;1.20;1.10;;;3.30;99.90;;;;;;4684844;30;20374;-83
2022/11/21 04:36:07;;;;;;;1.02;1.02;;;3.40;99.90;;;;;;4684778;30;20062;-84
2022/11/21 04:38:35;;;;;;;1.67;1.25;;;3.40;99.90;;;;;;4670785;30;20095;-84
2022/11/21 04:41:03;;;;;;;3.50;1.67;;;3.50;99.90;;;;;;4684635;30;20057;-84
2022/11/21 04:43:30;;;;;;;0.80;0.80;;;3.50;99.90;;;;;;4700041;30;20045;-85
2022/11/21 04:45:58;;;;;;;1.35;1.25;;;3.50;99.90;;;;;;4700404;30;20646;-83
2022/11/21 04:48:26;;;;;;;1.75;1.20;;;3.50;99.90;;;;;;4694231;30;20408;-84
2022/11/21 04:50:56;;;;;;;3.15;1.88;;;3.50;99.90;;;;;;4700955;30;20057;-83
2022/11/21 04:53:23;;;;;;;1.40;1.30;;;3.70;99.90;;;;;;4701939;30;20492;-84
2022/11/21 04:55:51;;;;;;;1.17;1.08;;;3.60;99.90;;;;;;4701801;30;20506;-84
2022/11/21 04:58:18;;;;;;;10.13;3.08;;;3.60;99.90;;;;;;4717307;30;20056;-84
2022/11/21 05:00:45;;;;;;;2.00;1.30;;;3.60;99.90;;;;;;4717147;30;20049;-84
2022/11/21 05:03:48;;;;;;;1.90;1.80;;;3.60;99.90;;;;;;4701514;30;20049;-83
2022/11/21 05:06:16;;;;;;;1.33;0.93;;;3.60;99.90;;;;;;4717512;30;20049;-83
2022/11/21 05:08:43;;;;;;;6.32;1.67;;;3.60;99.90;;;;;;4701465;30;20041;-84
2022/11/21 05:14:04;;;;;;;2.55;1.08;;;3.60;99.90;;;;;;4684483;30;20068;-83
2022/11/21 05:16:32;;;;;;;3.58;1.25;;;3.70;99.90;;;;;;4669751;30;20050;-82
2022/11/21 05:19:00;;;;;;;1.20;1.10;;;3.80;99.90;;;;;;4699193;30;20386;-84
2022/11/21 05:21:27;;;;;;;0.98;0.98;;;3.80;99.90;;;;;;4684703;30;20060;-83
2022/11/21 05:23:56;;;;;;;1.00;0.90;;;3.80;99.90;;;;;;4699498;30;20552;-84
2022/11/21 05:26:24;;;;;;;1.13;1.10;;;3.80;99.90;;;;;;4684161;30;20790;-83
2022/11/21 05:28:51;;;;;;;4.03;1.20;;;3.70;99.90;;;;;;4699368;30;20512;-83
2022/11/21 05:31:18;;;;;;;1.27;1.17;;;3.70;99.90;;;;;;4699382;30;20898;-83
2022/11/21 05:33:49;;;;;;;4.32;1.33;;;3.60;99.90;;;;;;4669558;30;20069;-83
2022/11/21 05:36:17;;;;;;;0.90;0.80;;;3.60;99.90;;;;;;4669760;30;20083;-81
2022/11/21 05:38:44;;;;;;;1.27;1.17;;;3.60;99.90;;;;;;4699890;30;20061;-83
2022/11/21 05:41:15;;;;;;;1.23;1.13;;;3.60;99.90;;;;;;4683779;30;20061;-83
2022/11/21 05:43:45;;;;;;;2.58;1.10;;;3.50;99.90;;;;;;4699203;30;20539;-84
2022/11/21 05:46:18;;;;;;;1.42;1.33;;;3.50;99.90;;;;;;4699634;30;20053;-84
2022/11/21 05:48:47;;;;;;;2.30;0.93;;;3.40;99.90;;;;;;4698980;30;20751;-84
2022/11/21 05:51:16;;;;;;;1.80;1.45;;;3.40;99.90;;;;;;4669554;30;20496;-84
2022/11/21 05:53:44;;;;;;;1.35;0.93;;;3.30;99.90;;;;;;4656002;30;20401;-84
2022/11/21 05:56:14;;;;;;;2.13;1.00;;;3.30;99.90;;;;;;4683449;30;20524;-83
2022/11/21 05:58:42;;;;;;;1.63;1.30;;;3.30;99.90;;;;;;4699455;30;20053;-82
2022/11/21 06:01:11;;;;;;;1.05;1.05;;;3.30;99.90;;;;;;4699095;30;20058;-84
2022/11/21 06:03:42;;;;;;;1.25;0.73;;;3.20;99.90;;;;;;4669001;30;20406;-83
2022/11/21 06:06:14;;;;;;;0.80;0.80;;;3.30;99.90;;;;;;4669606;30;20065;-83
2022/11/21 06:08:48;;;;;;;1.08;1.00;;;3.30;99.90;;;;;;4669920;30;20064;-85
2022/11/21 06:11:16;;;;;;;2.80;1.10;;;3.40;99.90;;;;;;4687032;30;20045;-85
2022/11/21 06:13:44;;;;;;;0.80;0.80;;;3.30;99.90;;;;;;4673307;30;20493;-87
2022/11/21 06:16:14;;;;;;;4.10;1.38;;;3.30;99.90;;;;;;4672596;30;20053;-86
2022/11/21 06:18:44;;;;;;;1.27;0.98;;;3.30;99.90;;;;;;4673062;30;20061;-85
2022/11/21 06:21:14;;;;;;;1.02;1.00;;;3.30;99.90;;;;;;4702439;30;20057;-85
2022/11/21 06:23:45;;;;;;;1.52;1.42;;;3.30;99.90;;;;;;4672630;30;20073;-86
2022/11/21 06:26:15;;;;;;;1.05;0.95;;;3.20;99.90;;;;;;4672995;30;20512;-84
2022/11/21 06:28:44;;;;;;;0.88;0.85;;;3.30;99.90;;;;;;4696533;30;20049;-87
2022/11/21 06:31:25;;;;;;;0.90;0.90;;;3.30;99.90;;;;;;4688325;30;20064;-85
2022/11/21 06:33:54;;;;;;;1.00;1.00;;;3.20;99.90;;;;;;4702195;30;20049;-84
2022/11/21 06:36:22;;;;;;;1.60;1.50;;;3.20;99.90;;;;;;4674341;30;20053;-84
2022/11/21 06:38:52;;;;;;;1.00;0.90;;;3.20;99.90;;;;;;4670128;30;20050;-84
2022/11/21 06:41:25;;;;;;;1.98;0.93;;;3.20;99.90;;;;;;4674754;30;20057;-83
2022/11/21 06:43:52;;;;;;;1.05;1.00;;;3.20;99.90;;;;;;4702319;30;20053;-84
2022/11/21 06:46:19;;;;;;;1.30;1.10;;;3.20;99.90;;;;;;4672687;30;20057;-84
2022/11/21 06:48:49;;;;;;;1.40;1.23;;;3.20;99.90;;;;;;4686051;30;20056;-84
2022/11/21 06:51:17;;;;;;;5.97;1.20;;;3.20;99.90;;;;;;4701934;30;20050;-84
2022/11/21 06:53:45;;;;;;;1.95;0.93;;;3.20;99.90;;;;;;4686781;30;20050;-84
2022/11/21 06:56:14;;;;;;;0.80;0.80;;;3.30;99.90;;;;;;4698032;30;20053;-84
2022/11/21 06:58:41;;;;;;;0.75;0.75;;;3.30;99.90;;;;;;4686818;30;20053;-83
2022/11/21 07:01:09;;;;;;;2.05;1.10;;;3.20;99.90;;;;;;4671789;30;20060;-83
2022/11/21 07:03:47;;;;;;;3.35;1.20;;;3.20;99.90;;;;;;4654380;30;20052;-83
2022/11/21 07:06:15;;;;;;;1.15;1.13;;;3.20;99.90;;;;;;4685346;30;20064;-84
2022/11/21 07:08:42;;;;;;;1.35;1.25;;;3.30;99.90;;;;;;4687179;30;20056;-84
2022/11/21 07:11:12;;;;;;;1.48;1.10;;;3.30;99.90;;;;;;4656363;30;20066;-84
2022/11/21 07:13:55;;;;;;;1.02;0.95;;;3.40;99.90;;;;;;4661092;30;20046;-84
2022/11/21 07:16:24;;;;;;;1.13;1.02;;;3.40;99.90;;;;;;4685118;30;20064;-84
2022/11/21 07:18:52;;;;;;;0.70;0.70;;;3.40;99.90;;;;;;4673820;30;20060;-84
2022/11/21 07:21:20;;;;;;;1.40;1.05;;;3.50;99.90;;;;;;4671094;30;20457;-84
2022/11/21 07:23:47;;;;;;;0.90;0.90;;;3.50;99.90;;;;;;4696300;30;20050;-83
2022/11/21 07:26:14;;;;;;;0.80;0.80;;;3.50;99.90;;;;;;4684548;30;20065;-83
2022/11/21 07:28:42;;;;;;;1.02;1.00;;;3.60;99.90;;;;;;4684466;30;20532;-84
2022/11/21 07:31:10;;;;;;;1.08;0.98;;;3.60;99.90;;;;;;4684199;30;20050;-84
2022/11/21 07:33:50;;;;;;;2.33;1.10;;;3.70;99.90;;;;;;4700801;30;20054;-85
2022/11/21 07:36:18;;;;;;;0.85;0.85;;;3.70;99.90;;;;;;4691025;30;20042;-85
2022/11/21 07:38:49;;;;;;;1.13;1.10;;;3.70;99.90;;;;;;4662773;30;20050;-85
2022/11/21 07:41:21;;;;;;;0.70;0.70;;;3.70;99.90;;;;;;4680867;30;20397;-86
2022/11/21 07:43:51;;;;;;;0.70;0.70;;;3.80;99.90;;;;;;4682762;30;20486;-85
2022/11/21 07:46:43;;;;;;;0.90;0.90;;;3.80;99.90;;;;;;4688629;30;20063;-86
2022/11/21 07:49:16;;;;;;;0.73;0.73;;;3.80;99.90;;;;;;4676816;30;20066;-85
2022/11/21 07:51:49;;;;;;;2.15;0.80;;;3.80;99.90;;;;;;4668492;30;20054;-86
2022/11/21 07:55:27;;;;;;;0.98;0.90;;;3.70;99.90;;;;;;4667890;30;20058;-89
2022/11/21 07:58:29;;;;;;;0.70;0.70;;;3.70;99.90;;;;;;4535232;30;20061;-86
2022/11/21 08:00:57;;;;;;;0.85;0.85;;;3.80;99.90;;;;;;4623925;30;20058;-86
2022/11/21 08:03:33;;;;;;;0.80;0.80;;;3.70;99.90;;;;;;4629289;30;20482;-87
2022/11/21 08:09:03;;;;;;;1.48;1.38;;;3.60;99.90;;;;;;4669958;30;20528;-85
2022/11/21 08:11:31;;;;;;;0.80;0.80;;;3.60;99.90;;;;;;4677610;30;20064;-85
2022/11/21 08:13:58;;;;;;;1.77;1.67;;;3.60;99.90;;;;;;4663022;30;20064;-85
2022/11/21 08:16:26;;;;;;;2.10;0.80;;;3.60;99.90;;;;;;4671027;30;20418;-84
2022/11/21 08:18:54;;;;;;;0.70;0.70;;;3.60;99.90;;;;;;4692186;30;20050;-84
2022/11/21 08:21:22;;;;;;;1.30;1.20;;;3.70;99.90;;;;;;4692325;30;20080;-85
2022/11/21 08:23:49;;;;;;;4.07;1.10;;;3.90;99.90;;;;;;4667932;30;20057;-85
2022/11/21 08:26:17;;;;;;;1.00;1.00;;;3.90;99.90;;;;;;4690559;30;20073;-84
2022/11/21 08:28:44;;;;;;;1.52;1.45;;;3.90;99.90;;;;;;4660467;30;20062;-85
2022/11/21 08:31:12;;;;;;;0.90;0.90;;;4.00;99.90;;;;;;4687099;30;20060;-84
2022/11/21 08:33:39;;;;;;;3.25;1.00;;;4.10;99.90;;;;;;4639005;30;20062;-85
2022/11/21 08:36:07;;;;;;;0.80;0.80;;;4.20;99.90;;;;;;4667326;30;20084;-85
2022/11/21 08:38:34;;;;;;;0.70;0.70;;;4.20;99.90;;;;;;4688546;30;20058;-84
2022/11/21 08:43:50;;;;;;;3.22;2.05;;;4.20;99.90;;;;;;4690966;30;20057;-85
2022/11/21 08:46:18;;;;;;;0.65;0.65;;;4.10;99.90;;;;;;4681819;30;20053;-86
2022/11/21 08:48:45;;;;;;;0.90;0.90;;;4.10;99.90;;;;;;4696825;30;20053;-84
2022/11/21 08:51:14;;;;;;;0.90;0.90;;;4.20;99.90;;;;;;4664808;30;20049;-87
2022/11/21 08:53:41;;;;;;;1.52;1.00;;;4.30;99.90;;;;;;4680973;30;20061;-86
2022/11/21 08:56:09;;;;;;;0.90;0.90;;;4.30;99.90;;;;;;4681325;30;20050;-87
2022/11/21 08:58:36;;;;;;;0.80;0.63;;;4.30;99.90;;;;;;4681869;30;20065;-85
2022/11/21 09:01:03;;;;;;;0.90;0.90;;;4.30;99.90;;;;;;4698052;30;20818;-86
2022/11/21 09:03:31;;;;;;;1.27;0.80;;;4.40;99.90;;;;;;4683518;30;20049;-86
2022/11/21 09:05:59;;;;;;;3.80;0.90;;;4.40;99.90;;;;;;4683482;30;20065;-87
2022/11/21 09:08:28;;;;;;;1.02;0.95;;;4.40;99.90;;;;;;4698009;30;20065;-86
2022/11/21 09:10:56;;;;;;;0.60;0.60;;;4.30;99.90;;;;;;4663529;30;20787;-85
2022/11/21 09:13:23;;;;;;;0.80;0.80;;;4.40;99.90;;;;;;4685707;30;20068;-84
2022/11/21 09:18:38;;;;;;;0.93;0.93;;;4.50;99.90;;;;;;4695230;30;20061;-84
2022/11/21 09:21:05;;;;;;;2.45;0.80;;;4.70;99.90;;;;;;4680659;30;20053;-84
2022/11/21 09:23:33;;;;;;;0.60;0.60;;;4.70;99.90;;;;;;4696128;30;20058;-85
2022/11/21 09:26:00;;;;;;;0.77;0.77;;;4.70;99.90;;;;;;4681316;30;20069;-83
2022/11/21 09:28:30;;;;;;;0.82;0.70;;;4.80;99.90;;;;;;4673982;30;20053;-86
2022/11/21 09:30:57;;;;;;;1.58;1.15;;;4.90;99.90;;;;;;4672777;30;20061;-84
2022/11/21 09:33:25;;;;;;;1.15;1.05;;;5.10;99.90;;;;;;4692595;30;20424;-86
2022/11/21 09:35:53;;;;;;;1.02;0.98;;;5.40;99.90;;;;;;4639677;30;20053;-85
2022/11/21 09:38:20;;;;;;;0.90;0.90;;;5.50;99.90;;;;;;4653258;30;20065;-85
2022/11/21 09:40:50;;;;;;;0.70;0.70;;;5.20;99.90;;;;;;4666582;30;20069;-84
2022/11/21 09:43:45;;;;;;;1.00;1.00;;;5.10;99.90;;;;;;4695303;30;20064;-85
2022/11/21 09:46:16;;;;;;;5.32;3.25;;;5.00;99.90;;;;;;4696374;30;20050;-82
2022/11/21 09:48:49;;;;;;;1.37;1.27;;;5.00;99.90;;;;;;4653772;30;20624;-85
2022/11/21 09:51:19;;;;;;;1.33;1.05;;;5.10;99.90;;;;;;4662328;30;20057;-87
2022/11/21 09:53:58;;;;;;;1.35;1.08;;;5.40;99.90;;;;;;4678577;30;20065;-82
2022/11/21 09:56:30;;;;;;;2.25;1.30;;;5.30;99.90;;;;;;4691745;30;20409;-81
2022/11/21 09:59:36;;;;;;;4.97;2.92;;;5.20;99.90;;;;;;4662633;30;20409;-84
2022/11/21 10:02:21;;;;;;;1.40;0.82;;;5.30;99.90;;;;;;4671319;30;20073;-81
2022/11/21 10:04:59;;;;;;;1.02;1.02;;;5.50;99.90;;;;;;4686236;30;20053;-87
2022/11/21 10:07:31;;;;;;;8.30;1.58;;;5.50;99.90;;;;;;4694909;30;20045;-86
2022/11/21 10:10:28;;;;;;;8.95;1.20;;;5.40;99.90;;;;;;4692924;30;20056;-86
2022/11/21 10:13:35;;;;;;;1.15;1.05;;;5.50;99.90;;;;;;4686075;30;20052;-87
2022/11/21 10:16:14;;;;;;;1.40;1.30;;;5.70;99.90;;;;;;4695745;30;20050;-86
2022/11/21 10:19:16;;;;;;;1.27;0.90;;;5.70;99.90;;;;;;4697327;30;20409;-87
2022/11/21 10:22:09;;;;;;;0.88;0.88;;;5.70;99.90;;;;;;4670424;30;20959;-87
2022/11/21 10:24:51;;;;;;;1.17;1.15;;;5.70;99.90;;;;;;4677232;30;20072;-86
2022/11/21 10:27:57;;;;;;;0.95;0.80;;;5.60;99.90;;;;;;4673108;30;20053;-87
2022/11/21 10:30:25;;;;;;;6.85;1.08;;;5.80;99.90;;;;;;4674673;30;20065;-88
2022/11/21 10:33:03;;;;;;;0.63;0.63;;;5.80;99.90;;;;;;4676097;30;20666;-84
2022/11/21 10:36:01;;;;;;;1.95;1.08;;;5.60;99.90;;;;;;4686987;30;20072;-86
2022/11/21 10:38:29;;;;;;;0.73;0.73;;;5.60;99.90;;;;;;4681492;30;20062;-87
2022/11/21 10:41:11;;;;;;;3.10;1.27;;;5.60;99.90;;;;;;4682775;30;20417;-86
2022/11/21 10:46:35;;;;;;;4.03;3.00;;;5.50;99.90;;;;;;4683267;30;20054;-86
2022/11/21 10:49:03;;;;;;;2.38;1.05;;;5.40;99.90;;;;;;4695122;30;20501;-87
2022/11/21 10:51:37;;;;;;;0.75;0.75;;;5.50;99.90;;;;;;4695312;30;20057;-87
2022/11/21 10:57:19;;;;;;;1.67;0.90;;;5.60;99.90;;;;;;4687818;30;20061;-86
2022/11/21 11:00:18;;;;;;;1.80;1.70;;;5.70;99.90;;;;;;4704625;30;20057;-86
2022/11/21 11:02:55;;;;;;;0.80;0.80;;;5.80;99.90;;;;;;4690528;30;20053;-87
2022/11/21 11:05:36;;;;;;;0.90;0.90;;;5.90;99.90;;;;;;4663654;30;20413;-86
2022/11/21 11:09:02;;;;;;;0.80;0.80;;;6.00;99.90;;;;;;4680899;30;20493;-85
2022/11/21 11:11:30;;;;;;;1.00;1.00;;;6.00;99.90;;;;;;4624117;30;20048;-86
2022/11/21 11:14:04;;;;;;;1.63;1.00;;;6.00;99.90;;;;;;4670064;30;20093;-87
2022/11/21 11:16:35;;;;;;;1.73;0.70;;;5.90;99.90;;;;;;4703790;30;20493;-86
2022/11/21 11:19:13;;;;;;;1.50;1.37;;;5.80;99.90;;;;;;4697832;30;20398;-87
2022/11/21 11:21:43;;;;;;;5.95;2.75;;;5.80;99.90;;;;;;4698597;30;20054;-88
2022/11/21 11:24:19;;;;;;;1.33;0.93;;;5.70;99.90;;;;;;4683420;30;20054;-95
2022/11/21 11:27:10;;;;;;;1.98;0.80;;;5.70;99.90;;;;;;4671956;30;20069;-93
2022/11/21 11:35:03;;;;;;;1.05;0.85;;;5.80;99.90;;;;;;4685781;30;20049;-89
2022/11/21 11:37:42;;;;;;;0.95;0.82;;;5.80;99.90;;;;;;4674286;30;20058;-91
2022/11/21 11:40:35;;;;;;;1.00;1.00;;;5.80;99.90;;;;;;4683135;30;20045;-93
2022/11/21 11:50:12;;;;;;;0.98;0.88;;;5.90;99.90;;;;;;4638847;30;20089;-84
2022/11/21 11:52:59;;;;;;;0.75;0.70;;;5.90;99.90;;;;;;4670796;30;20057;-96
2022/11/21 11:56:02;;;;;;;2.35;0.98;;;5.90;99.90;;;;;;4676591;30;20060;-96
2022/11/21 11:58:51;;;;;;;1.23;1.00;;;5.90;99.90;;;;;;4681217;30;20053;-93
2022/11/21 12:01:38;;;;;;;1.13;1.02;;;5.70;99.90;;;;;;4674953;30;20387;-94
2022/11/21 12:09:00;;;;;;;1.05;0.90;;;5.50;99.90;;;;;;4711039;30;20060;-96
2022/11/21 12:18:18;;;;;;;2.35;1.17;;;5.60;99.90;;;;;;4704592;30;20061;-94
2022/11/21 12:21:14;;;;;;;2.53;0.90;;;5.60;99.90;;;;;;4661478;30;20046;-94
2022/11/21 12:24:03;;;;;;;1.98;1.55;;;5.70;99.90;;;;;;4666523;30;20159;-92
2022/11/21 12:27:02;;;;;;;0.90;0.90;;;5.70;99.90;;;;;;4653200;30;20066;-93
2022/11/21 12:29:49;;;;;;;22.33;5.50;;;5.70;99.90;;;;;;4684294;30;20085;-93
2022/11/21 12:32:24;;;;;;;4.43;1.65;;;5.70;99.90;;;;;;4699528;30;20053;-93
2022/11/21 12:40:43;;;;;;;12.80;2.47;;;5.60;99.90;;;;;;4675432;30;20061;-90
2022/11/21 12:43:44;;;;;;;3.60;3.35;;;5.40;99.90;;;;;;4688703;30;20052;-90
2022/11/21 12:46:52;;;;;;;1.15;1.10;;;5.30;99.90;;;;;;4697107;30;20058;-94
2022/11/21 12:55:40;;;;;;;1.42;1.13;;;6.30;99.90;;;;;;4670590;30;20054;-91
2022/11/21 12:58:50;;;;;;;1.17;1.08;;;6.00;99.90;;;;;;4660524;30;20073;-95
2022/11/21 13:12:28;;;;;;;1.33;1.23;;;5.20;99.90;;;;;;2143347;24;20315;-92
2022/11/21 13:15:13;;;;;;;1.10;1.00;;;5.40;99.90;;;;;;4710785;30;20108;-92
2022/11/21 13:17:48;;;;;;;3.17;1.02;;;5.50;99.90;;;;;;4701552;30;20068;-91
2022/11/21 13:20:44;;;;;;;1.10;1.00;;;5.60;99.90;;;;;;4729337;30;20048;-88
2022/11/21 13:23:30;;;;;;;2.50;1.17;;;5.70;99.90;;;;;;4728982;30;20492;-92
2022/11/21 13:25:58;;;;;;;2.72;1.27;;;5.90;99.90;;;;;;4703367;30;20403;-92
2022/11/21 13:29:45;;;;;;;1.50;1.40;;;6.00;99.90;;;;;;4718841;30;20052;-93
2022/11/21 13:38:19;;;;;;;1.92;1.83;;;7.00;99.90;;;;;;4713797;30;20500;-95
2022/11/21 13:43:43;;;;;;;2.17;1.00;;;6.90;99.90;;;;;;4739373;30;20049;-95
2022/11/21 13:47:00;;;;;;;1.02;1.02;;;6.90;99.90;;;;;;4709909;30;20060;-94
2022/11/21 13:49:37;;;;;;;2.70;1.15;;;6.80;99.90;;;;;;4712381;30;20049;-82
2022/11/21 13:52:43;;;;;;;1.33;1.10;;;6.60;99.90;;;;;;4736482;30;20049;-96
2022/11/21 13:55:57;;;;;;;0.82;0.82;;;6.60;99.90;;;;;;4733280;30;20056;-95
2022/11/21 13:59:19;;;;;;;2.55;0.90;;;6.60;99.90;;;;;;4717300;30;20068;-95
2022/11/21 14:02:45;;;;;;;1.00;0.90;;;6.60;99.90;;;;;;4704445;30;20497;-92
2022/11/21 14:21:42;;;;;;;1.10;1.00;;;6.00;99.90;;;;;;4655919;30;20073;-94
2022/11/21 14:24:21;;;;;;;1.38;1.20;;;5.90;99.90;;;;;;5228691;24;20039;-95
2022/11/21 14:28:10;;;;;;;2.00;1.27;;;5.80;99.90;;;;;;4975649;25;20841;31
2022/11/21 14:35:00;;;;;;;2.70;0.80;;;5.40;99.90;;;;;;5740914;24;20262;31
2022/11/21 14:38:21;;;;;;;0.93;0.93;;;5.40;99.90;;;;;;1524113;24;20236;-93
2022/11/21 14:42:19;;;;;;;1.15;0.85;;;5.30;99.90;;;;;;4690636;30;20061;-95
2022/11/21 14:45:06;;;;;;;6.97;2.88;;;5.10;99.90;;;;;;4678729;30;20054;-95
2022/11/21 14:48:11;;;;;;;0.63;0.63;;;5.10;99.90;;;;;;4674014;30;20060;-95
2022/11/21 14:50:51;;;;;;;0.80;0.80;;;5.10;99.90;;;;;;4669293;30;20065;-94
2022/11/21 14:53:19;;;;;;;1.75;1.65;;;5.00;99.90;;;;;;4671175;30;20513;-95
2022/11/21 14:55:52;;;;;;;0.90;0.82;;;5.00;99.90;;;;;;4693027;30;20053;-95
2022/11/21 14:58:31;;;;;;;1.17;1.07;;;4.90;99.90;;;;;;4686470;30;20050;-95
2022/11/21 15:01:22;;;;;;;1.13;0.93;;;4.80;99.90;;;;;;4681125;30;20054;-92
2022/11/21 15:08:26;;;;;;;3.42;1.42;;;4.50;99.90;;;;;;4651503;30;20054;-95
2022/11/21 15:11:16;;;;;;;1.30;1.25;;;4.30;99.90;;;;;;4637257;30;20051;-94
2022/11/21 15:13:49;;;;;;;1.23;1.23;;;4.30;99.90;;;;;;4624762;30;20065;-96
2022/11/21 15:16:37;;;;;;;1.10;1.10;;;4.20;99.90;;;;;;4627211;30;20051;-95
2022/11/21 15:19:09;;;;;;;1.15;1.00;;;4.10;99.90;;;;;;4638816;30;20051;-94
2022/11/21 15:21:44;;;;;;;6.32;1.63;;;4.00;99.90;;;;;;4637490;30;20070;-94
2022/11/21 15:24:28;;;;;;;2.55;1.02;;;3.90;99.90;;;;;;4636807;30;20047;-96
2022/11/21 15:27:42;;;;;;;1.52;1.42;;;3.80;99.90;;;;;;4637794;30;20067;-94